sensor_id;sensor_type;location;lat;lon;timestamp;P1;durP1;ratioP1;P2;durP2;ratioP2
36995;SDS011;22905;50.340;10.776;2023-05-10T00:00:46;5.18;;;3.50;;
36995;SDS011;22905;50.340;10.776;2023-05-10T00:05:46;7.53;;;3.67;;
36995;SDS011;22905;50.340;10.776;2023-05-10T00:10:47;6.78;;;3.13;;
36995;SDS011;22905;50.340;10.776;2023-05-10T00:15:47;4.40;;;3.07;;
36995;SDS011;22905;50.340;10.776;2023-05-10T00:20:47;4.35;;;2.70;;
36995;SDS011;22905;50.340;10.776;2023-05-10T00:25:48;8.30;;;3.53;;
36995;SDS011;22905;50.340;10.776;2023-05-10T00:30:49;6.35;;;3.45;;
36995;SDS011;22905;50.340;10.776;2023-05-10T00:35:49;4.07;;;3.10;;
36995;SDS011;22905;50.340;10.776;2023-05-10T00:40:50;6.33;;;3.47;;
36995;SDS011;22905;50.340;10.776;2023-05-10T00:45:50;7.97;;;3.13;;
36995;SDS011;22905;50.340;10.776;2023-05-10T00:50:50;6.90;;;3.33;;
36995;SDS011;22905;50.340;10.776;2023-05-10T00:55:51;6.23;;;3.90;;
36995;SDS011;22905;50.340;10.776;2023-05-10T01:00:51;4.30;;;3.33;;
36995;SDS011;22905;50.340;10.776;2023-05-10T01:05:52;4.60;;;3.30;;
36995;SDS011;22905;50.340;10.776;2023-05-10T01:10:52;3.95;;;3.20;;
36995;SDS011;22905;50.340;10.776;2023-05-10T01:15:52;7.32;;;3.92;;
36995;SDS011;22905;50.340;10.776;2023-05-10T01:20:57;10.15;;;4.38;;
36995;SDS011;22905;50.340;10.776;2023-05-10T01:41:47;9.25;;;4.18;;
36995;SDS011;22905;50.340;10.776;2023-05-10T01:46:57;8.70;;;3.58;;
36995;SDS011;22905;50.340;10.776;2023-05-10T01:52:06;5.13;;;3.75;;
36995;SDS011;22905;50.340;10.776;2023-05-10T01:57:08;5.70;;;3.97;;
36995;SDS011;22905;50.340;10.776;2023-05-10T02:02:10;5.97;;;3.85;;
36995;SDS011;22905;50.340;10.776;2023-05-10T02:07:11;9.02;;;4.72;;
36995;SDS011;22905;50.340;10.776;2023-05-10T02:12:13;11.43;;;4.25;;
36995;SDS011;22905;50.340;10.776;2023-05-10T02:17:13;4.82;;;3.72;;
36995;SDS011;22905;50.340;10.776;2023-05-10T02:22:14;9.52;;;4.95;;
36995;SDS011;22905;50.340;10.776;2023-05-10T02:27:15;7.65;;;4.55;;
36995;SDS011;22905;50.340;10.776;2023-05-10T02:32:16;6.90;;;5.00;;
36995;SDS011;22905;50.340;10.776;2023-05-10T02:37:16;7.13;;;4.97;;
36995;SDS011;22905;50.340;10.776;2023-05-10T02:42:19;9.93;;;6.03;;
36995;SDS011;22905;50.340;10.776;2023-05-10T02:47:22;8.60;;;4.82;;
36995;SDS011;22905;50.340;10.776;2023-05-10T02:52:27;7.47;;;5.22;;
36995;SDS011;22905;50.340;10.776;2023-05-10T02:57:31;7.68;;;5.97;;
36995;SDS011;22905;50.340;10.776;2023-05-10T03:02:32;8.57;;;5.45;;
36995;SDS011;22905;50.340;10.776;2023-05-10T03:07:33;13.20;;;5.20;;
36995;SDS011;22905;50.340;10.776;2023-05-10T03:17:57;33.13;;;9.98;;
36995;SDS011;22905;50.340;10.776;2023-05-10T03:28:44;24.17;;;9.07;;
36995;SDS011;22905;50.340;10.776;2023-05-10T03:33:49;84.05;;;28.40;;
36995;SDS011;22905;50.340;10.776;2023-05-10T03:38:50;72.60;;;36.40;;
36995;SDS011;22905;50.340;10.776;2023-05-10T03:43:50;41.80;;;20.90;;
36995;SDS011;22905;50.340;10.776;2023-05-10T03:48:51;16.45;;;10.55;;
36995;SDS011;22905;50.340;10.776;2023-05-10T03:53:51;20.65;;;11.20;;
36995;SDS011;22905;50.340;10.776;2023-05-10T03:58:52;17.40;;;8.88;;
36995;SDS011;22905;50.340;10.776;2023-05-10T04:03:52;14.18;;;7.65;;
36995;SDS011;22905;50.340;10.776;2023-05-10T04:08:52;11.03;;;8.00;;
36995;SDS011;22905;50.340;10.776;2023-05-10T04:13:53;11.00;;;7.68;;
36995;SDS011;22905;50.340;10.776;2023-05-10T04:18:53;9.85;;;6.30;;
36995;SDS011;22905;50.340;10.776;2023-05-10T04:23:54;10.23;;;6.87;;
36995;SDS011;22905;50.340;10.776;2023-05-10T04:28:54;10.93;;;7.40;;
36995;SDS011;22905;50.340;10.776;2023-05-10T04:33:54;8.93;;;7.17;;
36995;SDS011;22905;50.340;10.776;2023-05-10T04:38:55;11.87;;;7.30;;
36995;SDS011;22905;50.340;10.776;2023-05-10T04:43:55;13.33;;;6.83;;
36995;SDS011;22905;50.340;10.776;2023-05-10T04:48:56;11.35;;;6.82;;
36995;SDS011;22905;50.340;10.776;2023-05-10T04:53:56;7.23;;;5.57;;
36995;SDS011;22905;50.340;10.776;2023-05-10T04:58:56;6.57;;;4.85;;
36995;SDS011;22905;50.340;10.776;2023-05-10T05:03:57;11.55;;;4.85;;
36995;SDS011;22905;50.340;10.776;2023-05-10T05:08:57;4.30;;;3.17;;
36995;SDS011;22905;50.340;10.776;2023-05-10T05:13:58;2.50;;;2.27;;
36995;SDS011;22905;50.340;10.776;2023-05-10T05:18:59;3.80;;;2.70;;
36995;SDS011;22905;50.340;10.776;2023-05-10T05:24:00;2.22;;;1.92;;
36995;SDS011;22905;50.340;10.776;2023-05-10T05:29:00;1.60;;;1.50;;
36995;SDS011;22905;50.340;10.776;2023-05-10T05:34:01;1.55;;;1.42;;
36995;SDS011;22905;50.340;10.776;2023-05-10T05:39:01;1.53;;;1.20;;
36995;SDS011;22905;50.340;10.776;2023-05-10T05:44:02;0.87;;;0.73;;
36995;SDS011;22905;50.340;10.776;2023-05-10T05:49:02;1.03;;;0.67;;
36995;SDS011;22905;50.340;10.776;2023-05-10T05:54:02;1.20;;;0.80;;
36995;SDS011;22905;50.340;10.776;2023-05-10T05:59:04;0.57;;;0.57;;
36995;SDS011;22905;50.340;10.776;2023-05-10T06:04:04;0.80;;;0.50;;
36995;SDS011;22905;50.340;10.776;2023-05-10T06:09:04;2.30;;;0.40;;
36995;SDS011;22905;50.340;10.776;2023-05-10T06:14:05;2.20;;;0.52;;
36995;SDS011;22905;50.340;10.776;2023-05-10T06:19:07;2.50;;;0.50;;
36995;SDS011;22905;50.340;10.776;2023-05-10T06:24:07;0.40;;;0.40;;
36995;SDS011;22905;50.340;10.776;2023-05-10T06:29:07;0.40;;;0.40;;
36995;SDS011;22905;50.340;10.776;2023-05-10T06:34:08;0.45;;;0.43;;
36995;SDS011;22905;50.340;10.776;2023-05-10T06:39:08;0.70;;;0.40;;
36995;SDS011;22905;50.340;10.776;2023-05-10T06:44:08;0.93;;;0.40;;
36995;SDS011;22905;50.340;10.776;2023-05-10T06:49:09;0.73;;;0.38;;
36995;SDS011;22905;50.340;10.776;2023-05-10T06:54:09;0.47;;;0.47;;
36995;SDS011;22905;50.340;10.776;2023-05-10T06:59:09;0.40;;;0.40;;
36995;SDS011;22905;50.340;10.776;2023-05-10T07:04:10;0.80;;;0.50;;
36995;SDS011;22905;50.340;10.776;2023-05-10T07:09:12;0.40;;;0.40;;
36995;SDS011;22905;50.340;10.776;2023-05-10T07:14:13;0.40;;;0.40;;
36995;SDS011;22905;50.340;10.776;2023-05-10T07:19:13;1.27;;;0.50;;
36995;SDS011;22905;50.340;10.776;2023-05-10T07:24:14;0.67;;;0.50;;
36995;SDS011;22905;50.340;10.776;2023-05-10T07:29:14;0.90;;;0.43;;
36995;SDS011;22905;50.340;10.776;2023-05-10T07:34:14;1.75;;;0.40;;
36995;SDS011;22905;50.340;10.776;2023-05-10T07:39:14;0.40;;;0.40;;
36995;SDS011;22905;50.340;10.776;2023-05-10T07:44:15;0.70;;;0.40;;
36995;SDS011;22905;50.340;10.776;2023-05-10T07:49:18;2.13;;;0.95;;
36995;SDS011;22905;50.340;10.776;2023-05-10T07:54:18;0.57;;;0.50;;
36995;SDS011;22905;50.340;10.776;2023-05-10T07:59:19;1.10;;;0.50;;
36995;SDS011;22905;50.340;10.776;2023-05-10T08:04:19;0.68;;;0.57;;
36995;SDS011;22905;50.340;10.776;2023-05-10T08:09:20;1.30;;;0.82;;
36995;SDS011;22905;50.340;10.776;2023-05-10T08:14:23;1.05;;;0.70;;
36995;SDS011;22905;50.340;10.776;2023-05-10T08:19:24;1.20;;;0.70;;
36995;SDS011;22905;50.340;10.776;2023-05-10T08:24:24;0.60;;;0.60;;
36995;SDS011;22905;50.340;10.776;2023-05-10T08:29:24;1.77;;;0.70;;
36995;SDS011;22905;50.340;10.776;2023-05-10T08:34:25;2.70;;;0.80;;
36995;SDS011;22905;50.340;10.776;2023-05-10T08:39:25;0.65;;;0.65;;
36995;SDS011;22905;50.340;10.776;2023-05-10T08:44:26;0.55;;;0.55;;
36995;SDS011;22905;50.340;10.776;2023-05-10T08:49:26;2.47;;;1.38;;
36995;SDS011;22905;50.340;10.776;2023-05-10T08:54:27;0.70;;;0.70;;
36995;SDS011;22905;50.340;10.776;2023-05-10T08:59:27;0.60;;;0.60;;
36995;SDS011;22905;50.340;10.776;2023-05-10T09:04:28;1.10;;;0.57;;
36995;SDS011;22905;50.340;10.776;2023-05-10T09:09:29;0.43;;;0.40;;
36995;SDS011;22905;50.340;10.776;2023-05-10T09:14:29;3.00;;;0.70;;
36995;SDS011;22905;50.340;10.776;2023-05-10T09:19:30;3.63;;;0.73;;
36995;SDS011;22905;50.340;10.776;2023-05-10T09:24:31;2.47;;;0.50;;
36995;SDS011;22905;50.340;10.776;2023-05-10T09:29:41;1.33;;;0.80;;
36995;SDS011;22905;50.340;10.776;2023-05-10T09:34:42;9.15;;;1.88;;
36995;SDS011;22905;50.340;10.776;2023-05-10T09:39:43;2.07;;;0.97;;
36995;SDS011;22905;50.340;10.776;2023-05-10T09:44:43;2.30;;;0.60;;
36995;SDS011;22905;50.340;10.776;2023-05-10T09:49:49;0.90;;;0.77;;
36995;SDS011;22905;50.340;10.776;2023-05-10T09:54:54;3.10;;;0.90;;
36995;SDS011;22905;50.340;10.776;2023-05-10T09:59:54;0.77;;;0.73;;
36995;SDS011;22905;50.340;10.776;2023-05-10T10:04:54;0.67;;;0.67;;
36995;SDS011;22905;50.340;10.776;2023-05-10T10:09:55;1.55;;;0.68;;
36995;SDS011;22905;50.340;10.776;2023-05-10T10:14:55;0.65;;;0.63;;
36995;SDS011;22905;50.340;10.776;2023-05-10T10:19:56;0.93;;;0.77;;
36995;SDS011;22905;50.340;10.776;2023-05-10T10:24:57;12.23;;;3.28;;
36995;SDS011;22905;50.340;10.776;2023-05-10T10:29:59;10.05;;;5.97;;
36995;SDS011;22905;50.340;10.776;2023-05-10T10:35:11;3.10;;;1.80;;
36995;SDS011;22905;50.340;10.776;2023-05-10T10:40:31;1.10;;;0.90;;
36995;SDS011;22905;50.340;10.776;2023-05-10T10:45:32;0.80;;;0.50;;
36995;SDS011;22905;50.340;10.776;2023-05-10T10:50:32;0.50;;;0.50;;
36995;SDS011;22905;50.340;10.776;2023-05-10T10:55:45;12.35;;;0.70;;
36995;SDS011;22905;50.340;10.776;2023-05-10T11:00:46;1.48;;;0.60;;
36995;SDS011;22905;50.340;10.776;2023-05-10T11:05:50;0.60;;;0.60;;
36995;SDS011;22905;50.340;10.776;2023-05-10T11:10:53;0.68;;;0.68;;
36995;SDS011;22905;50.340;10.776;2023-05-10T11:15:54;1.30;;;0.70;;
36995;SDS011;22905;50.340;10.776;2023-05-10T11:26:07;0.77;;;0.70;;
36995;SDS011;22905;50.340;10.776;2023-05-10T11:31:09;0.55;;;0.55;;
36995;SDS011;22905;50.340;10.776;2023-05-10T11:36:17;1.77;;;0.73;;
36995;SDS011;22905;50.340;10.776;2023-05-10T11:41:18;5.25;;;1.60;;
36995;SDS011;22905;50.340;10.776;2023-05-10T11:46:22;2.17;;;1.58;;
36995;SDS011;22905;50.340;10.776;2023-05-10T11:51:24;2.05;;;1.75;;
36995;SDS011;22905;50.340;10.776;2023-05-10T11:56:25;7.88;;;1.70;;
36995;SDS011;22905;50.340;10.776;2023-05-10T12:01:26;3.70;;;2.03;;
36995;SDS011;22905;50.340;10.776;2023-05-10T12:06:28;1.55;;;1.25;;
36995;SDS011;22905;50.340;10.776;2023-05-10T12:11:31;2.03;;;1.35;;
36995;SDS011;22905;50.340;10.776;2023-05-10T12:16:31;3.00;;;1.50;;
36995;SDS011;22905;50.340;10.776;2023-05-10T12:21:32;1.50;;;1.37;;
36995;SDS011;22905;50.340;10.776;2023-05-10T12:26:33;1.70;;;1.52;;
36995;SDS011;22905;50.340;10.776;2023-05-10T12:31:48;1.20;;;1.13;;
36995;SDS011;22905;50.340;10.776;2023-05-10T12:36:51;2.53;;;1.20;;
36995;SDS011;22905;50.340;10.776;2023-05-10T12:41:52;1.95;;;0.90;;
36995;SDS011;22905;50.340;10.776;2023-05-10T12:46:53;0.90;;;0.90;;
36995;SDS011;22905;50.340;10.776;2023-05-10T12:51:53;1.75;;;0.90;;
36995;SDS011;22905;50.340;10.776;2023-05-10T12:56:53;1.30;;;0.90;;
36995;SDS011;22905;50.340;10.776;2023-05-10T13:01:54;1.08;;;0.93;;
36995;SDS011;22905;50.340;10.776;2023-05-10T13:06:54;1.00;;;1.00;;
36995;SDS011;22905;50.340;10.776;2023-05-10T13:11:58;1.48;;;1.00;;
36995;SDS011;22905;50.340;10.776;2023-05-10T13:16:58;2.70;;;1.00;;
36995;SDS011;22905;50.340;10.776;2023-05-10T13:21:59;2.38;;;1.40;;
36995;SDS011;22905;50.340;10.776;2023-05-10T13:26:59;3.60;;;1.37;;
36995;SDS011;22905;50.340;10.776;2023-05-10T13:32:00;1.95;;;1.40;;
36995;SDS011;22905;50.340;10.776;2023-05-10T13:37:00;1.77;;;1.43;;
36995;SDS011;22905;50.340;10.776;2023-05-10T13:42:00;2.53;;;1.73;;
36995;SDS011;22905;50.340;10.776;2023-05-10T13:47:01;2.50;;;1.92;;
36995;SDS011;22905;50.340;10.776;2023-05-10T13:52:02;4.43;;;1.70;;
36995;SDS011;22905;50.340;10.776;2023-05-10T13:57:06;2.42;;;2.17;;
36995;SDS011;22905;50.340;10.776;2023-05-10T14:02:07;2.08;;;1.55;;
36995;SDS011;22905;50.340;10.776;2023-05-10T14:07:07;3.13;;;1.80;;
36995;SDS011;22905;50.340;10.776;2023-05-10T14:12:07;3.17;;;1.40;;
36995;SDS011;22905;50.340;10.776;2023-05-10T14:17:08;1.80;;;1.70;;
36995;SDS011;22905;50.340;10.776;2023-05-10T14:22:08;5.00;;;1.73;;
36995;SDS011;22905;50.340;10.776;2023-05-10T14:27:08;1.40;;;1.20;;
36995;SDS011;22905;50.340;10.776;2023-05-10T14:32:09;3.45;;;1.40;;
36995;SDS011;22905;50.340;10.776;2023-05-10T14:37:10;1.75;;;0.80;;
36995;SDS011;22905;50.340;10.776;2023-05-10T14:42:11;1.85;;;1.05;;
36995;SDS011;22905;50.340;10.776;2023-05-10T14:47:11;1.23;;;0.90;;
36995;SDS011;22905;50.340;10.776;2023-05-10T14:52:12;0.93;;;0.80;;
36995;SDS011;22905;50.340;10.776;2023-05-10T14:57:12;0.97;;;0.70;;
36995;SDS011;22905;50.340;10.776;2023-05-10T15:02:12;2.33;;;0.87;;
36995;SDS011;22905;50.340;10.776;2023-05-10T15:07:13;1.60;;;0.90;;
36995;SDS011;22905;50.340;10.776;2023-05-10T15:12:16;3.63;;;2.00;;
36995;SDS011;22905;50.340;10.776;2023-05-10T15:17:16;1.33;;;0.80;;
36995;SDS011;22905;50.340;10.776;2023-05-10T15:22:16;0.88;;;0.85;;
36995;SDS011;22905;50.340;10.776;2023-05-10T15:27:17;1.33;;;0.90;;
36995;SDS011;22905;50.340;10.776;2023-05-10T15:32:17;4.28;;;1.60;;
36995;SDS011;22905;50.340;10.776;2023-05-10T15:37:17;2.40;;;1.67;;
36995;SDS011;22905;50.340;10.776;2023-05-10T15:42:17;2.55;;;0.75;;
36995;SDS011;22905;50.340;10.776;2023-05-10T15:47:18;2.70;;;0.73;;
36995;SDS011;22905;50.340;10.776;2023-05-10T15:52:18;1.80;;;0.73;;
36995;SDS011;22905;50.340;10.776;2023-05-10T15:57:20;10.07;;;5.10;;
36995;SDS011;22905;50.340;10.776;2023-05-10T16:02:20;5.97;;;2.83;;
36995;SDS011;22905;50.340;10.776;2023-05-10T16:07:22;1.95;;;1.20;;
36995;SDS011;22905;50.340;10.776;2023-05-10T16:12:22;4.20;;;1.90;;
36995;SDS011;22905;50.340;10.776;2023-05-10T16:17:22;4.13;;;1.70;;
36995;SDS011;22905;50.340;10.776;2023-05-10T16:22:24;2.38;;;1.67;;
36995;SDS011;22905;50.340;10.776;2023-05-10T16:27:26;4.57;;;2.35;;
36995;SDS011;22905;50.340;10.776;2023-05-10T16:32:28;16.77;;;10.00;;
36995;SDS011;22905;50.340;10.776;2023-05-10T16:37:29;2.65;;;1.77;;
36995;SDS011;22905;50.340;10.776;2023-05-10T16:42:29;2.20;;;1.20;;
36995;SDS011;22905;50.340;10.776;2023-05-10T16:47:29;2.73;;;1.13;;
36995;SDS011;22905;50.340;10.776;2023-05-10T16:52:30;0.95;;;0.75;;
36995;SDS011;22905;50.340;10.776;2023-05-10T16:57:31;6.00;;;3.35;;
36995;SDS011;22905;50.340;10.776;2023-05-10T17:02:32;1.60;;;1.33;;
36995;SDS011;22905;50.340;10.776;2023-05-10T17:07:32;1.55;;;1.10;;
36995;SDS011;22905;50.340;10.776;2023-05-10T17:12:32;4.23;;;2.17;;
36995;SDS011;22905;50.340;10.776;2023-05-10T17:17:33;2.45;;;1.60;;
36995;SDS011;22905;50.340;10.776;2023-05-10T17:22:33;2.33;;;1.58;;
36995;SDS011;22905;50.340;10.776;2023-05-10T17:27:33;4.63;;;2.20;;
36995;SDS011;22905;50.340;10.776;2023-05-10T17:32:34;16.40;;;4.65;;
36995;SDS011;22905;50.340;10.776;2023-05-10T17:37:34;11.47;;;6.30;;
36995;SDS011;22905;50.340;10.776;2023-05-10T17:42:34;4.60;;;2.50;;
36995;SDS011;22905;50.340;10.776;2023-05-10T17:47:34;2.38;;;1.35;;
36995;SDS011;22905;50.340;10.776;2023-05-10T17:52:35;1.20;;;1.10;;
36995;SDS011;22905;50.340;10.776;2023-05-10T17:57:35;2.88;;;1.00;;
36995;SDS011;22905;50.340;10.776;2023-05-10T18:02:37;2.30;;;1.00;;
36995;SDS011;22905;50.340;10.776;2023-05-10T18:07:37;1.10;;;1.00;;
36995;SDS011;22905;50.340;10.776;2023-05-10T18:12:38;2.75;;;1.20;;
36995;SDS011;22905;50.340;10.776;2023-05-10T18:17:39;1.70;;;1.10;;
36995;SDS011;22905;50.340;10.776;2023-05-10T18:22:39;1.13;;;0.95;;
36995;SDS011;22905;50.340;10.776;2023-05-10T18:27:40;0.90;;;0.90;;
36995;SDS011;22905;50.340;10.776;2023-05-10T18:32:40;1.27;;;0.90;;
36995;SDS011;22905;50.340;10.776;2023-05-10T18:37:40;2.90;;;1.03;;
36995;SDS011;22905;50.340;10.776;2023-05-10T18:42:41;24.80;;;11.35;;
36995;SDS011;22905;50.340;10.776;2023-05-10T18:47:41;5.20;;;2.47;;
36995;SDS011;22905;50.340;10.776;2023-05-10T18:52:42;3.17;;;1.10;;
36995;SDS011;22905;50.340;10.776;2023-05-10T18:57:42;2.75;;;0.90;;
36995;SDS011;22905;50.340;10.776;2023-05-10T19:02:44;1.07;;;1.00;;
36995;SDS011;22905;50.340;10.776;2023-05-10T19:07:45;4.18;;;3.17;;
36995;SDS011;22905;50.340;10.776;2023-05-10T19:12:45;2.65;;;2.13;;
36995;SDS011;22905;50.340;10.776;2023-05-10T19:17:46;1.20;;;1.10;;
36995;SDS011;22905;50.340;10.776;2023-05-10T19:22:46;1.30;;;1.20;;
36995;SDS011;22905;50.340;10.776;2023-05-10T19:27:46;1.60;;;1.50;;
36995;SDS011;22905;50.340;10.776;2023-05-10T19:32:47;3.10;;;1.07;;
36995;SDS011;22905;50.340;10.776;2023-05-10T19:37:47;4.00;;;2.40;;
36995;SDS011;22905;50.340;10.776;2023-05-10T19:42:48;1.98;;;1.30;;
36995;SDS011;22905;50.340;10.776;2023-05-10T19:47:48;4.72;;;3.03;;
36995;SDS011;22905;50.340;10.776;2023-05-10T19:52:49;2.30;;;1.63;;
36995;SDS011;22905;50.340;10.776;2023-05-10T19:57:49;3.20;;;2.33;;
36995;SDS011;22905;50.340;10.776;2023-05-10T20:02:49;1.20;;;1.10;;
36995;SDS011;22905;50.340;10.776;2023-05-10T20:07:50;1.07;;;0.90;;
36995;SDS011;22905;50.340;10.776;2023-05-10T20:12:51;1.33;;;1.23;;
36995;SDS011;22905;50.340;10.776;2023-05-10T20:17:51;1.15;;;0.93;;
36995;SDS011;22905;50.340;10.776;2023-05-10T20:22:52;1.75;;;1.13;;
36995;SDS011;22905;50.340;10.776;2023-05-10T20:27:53;1.50;;;1.13;;
36995;SDS011;22905;50.340;10.776;2023-05-10T20:32:53;1.40;;;1.25;;
36995;SDS011;22905;50.340;10.776;2023-05-10T20:37:53;1.10;;;1.00;;
36995;SDS011;22905;50.340;10.776;2023-05-10T20:42:54;3.17;;;1.42;;
36995;SDS011;22905;50.340;10.776;2023-05-10T20:47:54;1.10;;;1.00;;
36995;SDS011;22905;50.340;10.776;2023-05-10T20:52:55;1.83;;;1.47;;
36995;SDS011;22905;50.340;10.776;2023-05-10T20:57:55;1.00;;;0.90;;
36995;SDS011;22905;50.340;10.776;2023-05-10T21:02:55;3.77;;;2.27;;
36995;SDS011;22905;50.340;10.776;2023-05-10T21:07:56;8.93;;;2.65;;
36995;SDS011;22905;50.340;10.776;2023-05-10T21:12:56;5.68;;;1.88;;
36995;SDS011;22905;50.340;10.776;2023-05-10T21:17:57;6.05;;;1.27;;
36995;SDS011;22905;50.340;10.776;2023-05-10T21:22:57;1.10;;;1.00;;
36995;SDS011;22905;50.340;10.776;2023-05-10T21:27:57;1.30;;;1.10;;
36995;SDS011;22905;50.340;10.776;2023-05-10T21:32:58;3.90;;;1.50;;
36995;SDS011;22905;50.340;10.776;2023-05-10T21:37:58;1.30;;;1.00;;
36995;SDS011;22905;50.340;10.776;2023-05-10T21:42:59;1.17;;;1.03;;
36995;SDS011;22905;50.340;10.776;2023-05-10T21:47:59;2.08;;;1.60;;
36995;SDS011;22905;50.340;10.776;2023-05-10T21:52:59;1.13;;;1.02;;
36995;SDS011;22905;50.340;10.776;2023-05-10T21:58:00;2.45;;;1.10;;
36995;SDS011;22905;50.340;10.776;2023-05-10T22:03:00;1.92;;;1.70;;
36995;SDS011;22905;50.340;10.776;2023-05-10T22:08:00;5.45;;;1.92;;
36995;SDS011;22905;50.340;10.776;2023-05-10T22:13:01;1.90;;;1.60;;
36995;SDS011;22905;50.340;10.776;2023-05-10T22:18:01;1.93;;;1.73;;
36995;SDS011;22905;50.340;10.776;2023-05-10T22:23:01;2.17;;;1.58;;
36995;SDS011;22905;50.340;10.776;2023-05-10T22:28:02;5.60;;;2.80;;
36995;SDS011;22905;50.340;10.776;2023-05-10T22:33:02;9.10;;;4.27;;
36995;SDS011;22905;50.340;10.776;2023-05-10T22:38:02;4.38;;;3.05;;
36995;SDS011;22905;50.340;10.776;2023-05-10T22:43:03;3.33;;;2.23;;
36995;SDS011;22905;50.340;10.776;2023-05-10T22:48:03;3.58;;;1.80;;
36995;SDS011;22905;50.340;10.776;2023-05-10T22:53:04;3.70;;;2.30;;
36995;SDS011;22905;50.340;10.776;2023-05-10T22:58:05;4.75;;;1.77;;
36995;SDS011;22905;50.340;10.776;2023-05-10T23:03:06;2.80;;;2.08;;
36995;SDS011;22905;50.340;10.776;2023-05-10T23:08:06;4.10;;;1.80;;
36995;SDS011;22905;50.340;10.776;2023-05-10T23:13:06;2.70;;;2.17;;
36995;SDS011;22905;50.340;10.776;2023-05-10T23:18:07;6.03;;;1.87;;
36995;SDS011;22905;50.340;10.776;2023-05-10T23:23:08;3.17;;;2.30;;
36995;SDS011;22905;50.340;10.776;2023-05-10T23:28:09;3.67;;;2.00;;
36995;SDS011;22905;50.340;10.776;2023-05-10T23:33:10;2.28;;;1.77;;
36995;SDS011;22905;50.340;10.776;2023-05-10T23:38:10;8.98;;;2.03;;
36995;SDS011;22905;50.340;10.776;2023-05-10T23:43:10;4.10;;;2.33;;
36995;SDS011;22905;50.340;10.776;2023-05-10T23:53:13;3.08;;;2.20;;
36995;SDS011;22905;50.340;10.776;2023-05-10T23:58:14;5.63;;;2.57;;
